Time;durP1;ratioP1;P1;durP2;ratioP2;P2;SDS_P1;SDS_P2;PMS_P1;PMS_P2;Temp;Humidity;BMP_temperature;BMP_pressure;BME280_temperature;BME280_humidity;BME280_pressure;Samples;Min_cycle;Max_cycle;Signal;HPM_P1;HPM_P2
2022/12/24 00:01:23;;;;;;;1.50;0.70;;;;;;;;;;4995727;28;20222;-76
2022/12/24 00:04:27;;;;;;;1.63;0.77;;;;;;;;;;4994863;28;20194;-76
2022/12/24 00:07:32;;;;;;;2.47;0.60;;;;;;;;;;4995483;28;20682;-75
2022/12/24 00:10:36;;;;;;;1.30;0.70;;;;;;;;;;4995456;28;20182;-75
2022/12/24 00:13:40;;;;;;;0.90;0.60;;;;;;;;;;4995096;28;20174;-76
2022/12/24 00:16:44;;;;;;;1.63;0.93;;;;;;;;;;4995514;28;20637;-76
2022/12/24 00:19:48;;;;;;;1.77;0.57;;;;;;;;;;4994497;28;20182;-75
2022/12/24 00:22:52;;;;;;;1.73;0.60;;;;;;;;;;4994687;28;20681;-76
2022/12/24 00:25:57;;;;;;;0.70;0.60;;;;;;;;;;4994250;28;20186;-76
2022/12/24 00:29:01;;;;;;;4.70;0.50;;;;;;;;;;4983434;28;20527;-76
2022/12/24 00:32:08;;;;;;;1.87;0.70;;;;;;;;;;4995117;28;20225;-76
2022/12/24 00:35:13;;;;;;;0.60;0.50;;;;;;;;;;4995116;28;20178;-76
2022/12/24 00:38:17;;;;;;;1.07;0.60;;;;;;;;;;4994967;28;20190;-75
2022/12/24 00:41:24;;;;;;;1.20;0.60;;;;;;;;;;4994292;28;20697;-76
2022/12/24 00:44:28;;;;;;;2.17;0.97;;;;;;;;;;4994385;28;20626;-76
2022/12/24 00:47:33;;;;;;;3.47;0.70;;;;;;;;;;4994037;28;20265;-76
2022/12/24 00:50:37;;;;;;;1.37;0.60;;;;;;;;;;4993899;28;20558;-76
2022/12/24 00:53:41;;;;;;;0.83;0.57;;;;;;;;;;4994917;28;20174;-76
2022/12/24 00:56:45;;;;;;;1.57;0.67;;;;;;;;;;4994025;28;20182;-76
2022/12/24 00:59:50;;;;;;;2.20;0.70;;;;;;;;;;4994290;28;20178;-75
2022/12/24 01:02:54;;;;;;;4.53;0.80;;;;;;;;;;4994834;28;20218;-75
2022/12/24 01:05:58;;;;;;;3.10;0.70;;;;;;;;;;4993816;28;20201;-75
2022/12/24 01:09:02;;;;;;;3.03;0.70;;;;;;;;;;4994784;28;20178;-76
2022/12/24 01:12:07;;;;;;;1.40;0.70;;;;;;;;;;4993734;28;20229;-75
2022/12/24 01:15:13;;;;;;;2.50;0.70;;;;;;;;;;4993803;28;20174;-76
2022/12/24 01:18:17;;;;;;;1.00;0.70;;;;;;;;;;4994494;28;20186;-75
2022/12/24 01:21:21;;;;;;;1.33;0.70;;;;;;;;;;4994387;28;20562;-76
2022/12/24 01:24:25;;;;;;;1.17;0.40;;;;;;;;;;4993607;28;20178;-75
2022/12/24 01:27:29;;;;;;;0.93;0.67;;;;;;;;;;4993442;28;20183;-76
2022/12/24 01:30:34;;;;;;;2.07;0.77;;;;;;;;;;5004919;28;20367;-76
2022/12/24 01:33:38;;;;;;;1.07;0.73;;;;;;;;;;4993858;28;20226;-76
2022/12/24 01:36:43;;;;;;;1.70;0.80;;;;;;;;;;4982452;28;20179;-76
2022/12/24 01:39:47;;;;;;;2.60;1.03;;;;;;;;;;4971041;28;20190;-76
2022/12/24 01:46:31;;;;;;;2.20;0.77;;;;;;;;;;4994235;28;20630;-75
2022/12/24 01:49:38;;;;;;;1.50;0.90;;;;;;;;;;4970924;28;20190;-75
2022/12/24 01:52:42;;;;;;;3.07;0.87;;;;;;;;;;4993486;28;20218;-76
2022/12/24 01:55:48;;;;;;;5.50;1.00;;;;;;;;;;4993158;28;20197;-75
2022/12/24 01:58:56;;;;;;;9.20;1.10;;;;;;;;;;4982037;28;20182;-76
2022/12/24 02:02:01;;;;;;;2.73;0.90;;;;;;;;;;4993476;28;20563;-76
2022/12/24 02:05:11;;;;;;;4.87;0.80;;;;;;;;;;4982016;28;20213;-75
2022/12/24 02:08:15;;;;;;;3.60;0.73;;;;;;;;;;4993790;28;20198;-76
2022/12/24 02:11:22;;;;;;;3.57;0.87;;;;;;;;;;4993486;28;20218;-75
2022/12/24 02:14:31;;;;;;;2.77;1.00;;;;;;;;;;4993272;28;20170;-76
2022/12/24 02:17:53;;;;;;;2.93;0.97;;;;;;;;;;4993046;28;20186;-75
2022/12/24 02:21:14;;;;;;;3.07;0.90;;;;;;;;;;4993165;28;20217;-75
2022/12/24 02:24:46;;;;;;;2.27;0.93;;;;;;;;;;4993948;28;20182;-75
2022/12/24 02:27:59;;;;;;;4.70;1.10;;;;;;;;;;4993088;28;20541;-76
2022/12/24 02:31:26;;;;;;;5.20;0.90;;;;;;;;;;4992889;28;20222;-76
2022/12/24 02:34:36;;;;;;;3.93;0.80;;;;;;;;;;5003939;28;20170;-75
2022/12/24 02:37:53;;;;;;;2.53;1.00;;;;;;;;;;4992604;28;20182;-76
2022/12/24 02:41:11;;;;;;;3.00;1.00;;;;;;;;;;4993700;28;20571;-76
2022/12/24 02:44:18;;;;;;;1.40;0.93;;;;;;;;;;4985310;28;20183;-76
2022/12/24 02:47:25;;;;;;;2.67;1.00;;;;;;;;;;4996462;28;20550;-76
2022/12/24 02:50:30;;;;;;;3.17;0.80;;;;;;;;;;4997289;28;20191;-75
2022/12/24 02:53:35;;;;;;;2.77;0.90;;;;;;;;;;4985131;28;20206;-75
2022/12/24 02:56:57;;;;;;;4.33;1.00;;;;;;;;;;4974043;28;20182;-75
2022/12/24 03:00:07;;;;;;;2.23;1.03;;;;;;;;;;4996234;28;20195;-75
2022/12/24 03:03:11;;;;;;;4.20;1.10;;;;;;;;;;4997021;28;20658;-75
2022/12/24 03:06:28;;;;;;;2.33;0.90;;;;;;;;;;4984695;28;20209;-75
2022/12/24 03:09:48;;;;;;;1.87;0.97;;;;;;;;;;4996838;28;20523;-75
2022/12/24 03:12:57;;;;;;;3.00;1.00;;;;;;;;;;4995445;28;20226;-75
2022/12/24 03:16:12;;;;;;;3.00;1.07;;;;;;;;;;4995844;28;20527;-76
2022/12/24 03:19:17;;;;;;;2.07;0.97;;;;;;;;;;4996340;28;20642;-76
2022/12/24 03:22:24;;;;;;;4.37;1.20;;;;;;;;;;4984726;28;20682;-75
2022/12/24 03:25:28;;;;;;;3.47;1.00;;;;;;;;;;4984330;28;20523;-76
2022/12/24 03:28:32;;;;;;;2.80;0.90;;;;;;;;;;4984466;28;20182;-76
2022/12/24 03:32:00;;;;;;;2.93;1.27;;;;;;;;;;4984324;28;20222;-75
2022/12/24 03:35:07;;;;;;;2.40;1.07;;;;;;;;;;4996002;28;20190;-76
2022/12/24 03:38:11;;;;;;;4.67;1.30;;;;;;;;;;4995623;28;20182;-76
2022/12/24 03:41:15;;;;;;;2.03;0.93;;;;;;;;;;4995803;28;20701;-76
2022/12/24 03:44:19;;;;;;;2.43;1.10;;;;;;;;;;4995315;28;20175;-76
2022/12/24 03:47:23;;;;;;;4.03;1.30;;;;;;;;;;4995175;28;20182;-76
2022/12/24 03:50:27;;;;;;;5.27;1.70;;;;;;;;;;4996026;28;20630;-75
2022/12/24 03:53:32;;;;;;;2.47;1.03;;;;;;;;;;4994776;28;20570;-75
2022/12/24 03:56:36;;;;;;;3.33;0.87;;;;;;;;;;4996148;28;20182;-76
2022/12/24 03:59:40;;;;;;;2.07;0.87;;;;;;;;;;4995540;28;20186;-76
2022/12/24 04:02:44;;;;;;;4.87;1.13;;;;;;;;;;4994896;28;20218;-76
2022/12/24 04:06:07;;;;;;;6.47;1.33;;;;;;;;;;4995300;28;20210;-76
2022/12/24 04:09:11;;;;;;;6.40;0.80;;;;;;;;;;4994802;28;20187;-76
2022/12/24 04:12:16;;;;;;;2.10;0.60;;;;;;;;;;4994625;28;20562;-76
2022/12/24 04:15:20;;;;;;;2.17;0.90;;;;;;;;;;4995531;28;20190;-76
2022/12/24 04:18:24;;;;;;;4.70;1.13;;;;;;;;;;4994430;28;20629;-76
2022/12/24 04:21:28;;;;;;;3.63;1.13;;;;;;;;;;4994547;28;20214;-76
2022/12/24 04:24:33;;;;;;;4.63;1.07;;;;;;;;;;4983131;28;20637;-76
2022/12/24 04:27:37;;;;;;;4.60;1.13;;;;;;;;;;4995323;28;20630;-75
2022/12/24 04:30:41;;;;;;;2.93;1.20;;;;;;;;;;4995149;28;20178;-76
2022/12/24 04:33:45;;;;;;;5.70;1.40;;;;;;;;;;4983103;28;20210;-76
2022/12/24 04:36:49;;;;;;;8.37;1.70;;;;;;;;;;4994098;28;20190;-76
2022/12/24 04:39:53;;;;;;;4.43;1.20;;;;;;;;;;4995006;28;20178;-76
2022/12/24 04:42:58;;;;;;;5.17;1.50;;;;;;;;;;4983094;28;20174;-76
2022/12/24 04:46:08;;;;;;;7.27;1.60;;;;;;;;;;4995245;28;20186;-76
2022/12/24 04:49:12;;;;;;;3.53;1.20;;;;;;;;;;4994091;28;20182;-76
2022/12/24 04:52:16;;;;;;;5.50;1.27;;;;;;;;;;4994746;28;20566;-76
2022/12/24 04:55:20;;;;;;;9.37;1.67;;;;;;;;;;4993743;28;20178;-75
2022/12/24 04:58:25;;;;;;;4.87;1.20;;;;;;;;;;4982804;28;20178;-76
2022/12/24 05:01:30;;;;;;;6.03;1.63;;;;;;;;;;4993690;28;20218;-76
2022/12/24 05:04:34;;;;;;;5.63;1.77;;;;;;;;;;4993924;28;20198;-75
2022/12/24 05:07:38;;;;;;;6.07;1.73;;;;;;;;;;4982660;28;20625;-76
2022/12/24 05:10:42;;;;;;;11.70;1.30;;;;;;;;;;4993394;28;20178;-76
2022/12/24 05:13:47;;;;;;;8.63;1.40;;;;;;;;;;5004825;28;20210;-76
2022/12/24 05:16:51;;;;;;;6.33;1.40;;;;;;;;;;4994162;28;20190;-76
2022/12/24 05:19:55;;;;;;;6.60;1.27;;;;;;;;;;4993602;28;20186;-75
2022/12/24 05:26:33;;;;;;;6.20;1.33;;;;;;;;;;4994337;28;20182;-76
2022/12/24 05:29:37;;;;;;;4.83;1.27;;;;;;;;;;4994015;28;20191;-75
2022/12/24 05:32:41;;;;;;;2.87;1.17;;;;;;;;;;4994402;28;20559;-76
2022/12/24 05:35:45;;;;;;;5.90;1.20;;;;;;;;;;4994427;28;20174;-76
2022/12/24 05:38:49;;;;;;;9.23;1.37;;;;;;;;;;4982717;28;20182;-76
2022/12/24 05:41:54;;;;;;;3.20;1.10;;;;;;;;;;4994559;28;20217;-76
2022/12/24 05:44:58;;;;;;;3.07;1.17;;;;;;;;;;5001817;28;20534;-75
2022/12/24 05:48:02;;;;;;;4.57;1.40;;;;;;;;;;4990884;28;20189;-76
2022/12/24 05:51:08;;;;;;;2.90;1.40;;;;;;;;;;5005563;28;20221;-76
2022/12/24 05:54:12;;;;;;;3.73;1.30;;;;;;;;;;5005738;28;20205;-76
2022/12/24 05:57:16;;;;;;;5.77;1.57;;;;;;;;;;5005794;28;20177;-76
2022/12/24 06:00:21;;;;;;;3.37;1.23;;;;;;;;;;5017259;28;20177;-75
2022/12/24 06:03:25;;;;;;;6.90;1.50;;;;;;;;;;5017080;28;20173;-76
2022/12/24 06:06:29;;;;;;;3.57;1.43;;;;;;;;;;5016741;28;20217;-75
2022/12/24 06:09:34;;;;;;;2.87;1.33;;;;;;;;;;5016576;28;20201;-76
2022/12/24 06:12:38;;;;;;;4.20;1.30;;;;;;;;;;5016001;28;20221;-75
2022/12/24 06:15:42;;;;;;;4.10;1.37;;;;;;;;;;5015422;28;20193;-76
2022/12/24 06:18:47;;;;;;;4.93;1.90;;;;;;;;;;4996164;28;20201;-76
2022/12/24 06:21:51;;;;;;;5.57;1.70;;;;;;;;;;5019022;28;20684;-75
2022/12/24 06:24:55;;;;;;;8.70;2.20;;;;;;;;;;5006905;28;20182;-77
2022/12/24 06:27:59;;;;;;;5.13;1.70;;;;;;;;;;5006262;28;20178;-76
2022/12/24 06:31:05;;;;;;;7.43;1.80;;;;;;;;;;5017163;28;20212;-75
2022/12/24 06:34:10;;;;;;;7.20;1.80;;;;;;;;;;5017911;28;20210;-75
2022/12/24 06:37:17;;;;;;;6.57;1.83;;;;;;;;;;5017978;28;20181;-75
2022/12/24 06:40:21;;;;;;;6.13;1.57;;;;;;;;;;5017653;28;20178;-76
2022/12/24 06:43:25;;;;;;;5.30;1.63;;;;;;;;;;5005257;28;20173;-76
2022/12/24 06:46:29;;;;;;;7.33;1.70;;;;;;;;;;5017393;28;20517;-75
2022/12/24 06:49:33;;;;;;;4.70;1.40;;;;;;;;;;5017133;28;20197;-76
2022/12/24 06:52:38;;;;;;;5.50;2.10;;;;;;;;;;5015965;28;20217;-75
2022/12/24 06:55:42;;;;;;;6.73;2.00;;;;;;;;;;5017245;28;20178;-75
2022/12/24 06:58:46;;;;;;;4.23;1.30;;;;;;;;;;5004896;28;20332;-76
2022/12/24 07:01:50;;;;;;;3.10;1.20;;;;;;;;;;5004490;28;20221;-75
2022/12/24 07:04:55;;;;;;;7.83;1.63;;;;;;;;;;4993446;28;20205;-75
2022/12/24 07:08:00;;;;;;;6.07;1.73;;;;;;;;;;5004829;28;20213;-75
2022/12/24 07:11:04;;;;;;;7.10;1.70;;;;;;;;;;5004361;28;20216;-75
2022/12/24 07:14:08;;;;;;;5.37;1.77;;;;;;;;;;4993168;28;20205;-75
2022/12/24 07:17:12;;;;;;;4.20;2.00;;;;;;;;;;5004067;28;20193;-75
2022/12/24 07:20:16;;;;;;;3.97;2.40;;;;;;;;;;5004309;28;20532;-75
2022/12/24 07:23:20;;;;;;;4.80;2.40;;;;;;;;;;5004089;28;20177;-75
2022/12/24 07:26:24;;;;;;;4.77;1.73;;;;;;;;;;5004234;28;20526;-75
2022/12/24 07:29:28;;;;;;;2.97;1.50;;;;;;;;;;5004703;28;20201;-75
2022/12/24 07:32:33;;;;;;;7.87;2.20;;;;;;;;;;5015147;28;20217;-75
2022/12/24 07:35:37;;;;;;;8.77;1.93;;;;;;;;;;5016103;28;20190;-75
2022/12/24 07:38:41;;;;;;;3.93;1.50;;;;;;;;;;4992864;28;20185;-75
2022/12/24 07:41:45;;;;;;;3.90;1.60;;;;;;;;;;5015179;28;20213;-76
2022/12/24 07:44:51;;;;;;;4.70;1.70;;;;;;;;;;5015645;28;20193;-75
2022/12/24 07:47:55;;;;;;;7.53;2.10;;;;;;;;;;4992727;28;20181;-75
2022/12/24 07:50:59;;;;;;;11.67;2.60;;;;;;;;;;5015853;28;20558;-78
2022/12/24 07:54:04;;;;;;;3.90;1.80;;;;;;;;;;4992537;28;20209;-75
2022/12/24 07:57:08;;;;;;;5.67;1.80;;;;;;;;;;5003640;28;20185;-75
2022/12/24 08:00:12;;;;;;;4.33;1.53;;;;;;;;;;5015492;28;20181;-75
2022/12/24 08:03:18;;;;;;;4.57;1.80;;;;;;;;;;5003217;28;20185;-75
2022/12/24 08:06:22;;;;;;;3.83;1.77;;;;;;;;;;5015048;28;20672;-75
2022/12/24 08:09:27;;;;;;;7.93;2.10;;;;;;;;;;4992221;28;20186;-75
2022/12/24 08:12:31;;;;;;;6.77;2.20;;;;;;;;;;5003031;28;20229;-75
2022/12/24 08:15:35;;;;;;;9.00;4.50;;;;;;;;;;5015527;28;20213;-75
2022/12/24 08:18:39;;;;;;;5.53;2.90;;;;;;;;;;5015050;28;20182;-75
2022/12/24 08:21:43;;;;;;;10.80;6.80;;;;;;;;;;5014640;28;20558;-75
2022/12/24 08:24:47;;;;;;;9.70;6.20;;;;;;;;;;5014235;28;20189;-75
2022/12/24 08:27:52;;;;;;;6.40;3.17;;;;;;;;;;5001929;28;20633;-75
2022/12/24 08:30:56;;;;;;;3.83;3.03;;;;;;;;;;5014989;28;20688;-75
2022/12/24 08:34:00;;;;;;;6.97;3.73;;;;;;;;;;5014684;28;20205;-75
2022/12/24 08:37:04;;;;;;;4.73;3.27;;;;;;;;;;5014999;28;20177;-75
2022/12/24 08:40:09;;;;;;;5.47;3.60;;;;;;;;;;5013938;28;20518;-74
2022/12/24 08:43:13;;;;;;;7.67;3.70;;;;;;;;;;4991331;28;20177;-75
2022/12/24 08:46:17;;;;;;;8.93;2.77;;;;;;;;;;5014770;28;20529;-75
2022/12/24 08:49:21;;;;;;;9.10;2.83;;;;;;;;;;5002567;28;20660;-75
2022/12/24 08:52:25;;;;;;;6.97;2.60;;;;;;;;;;5014588;28;20692;-75
2022/12/24 08:55:29;;;;;;;5.97;2.60;;;;;;;;;;5013366;28;20221;-75
2022/12/24 08:58:34;;;;;;;4.10;2.00;;;;;;;;;;5002360;28;20197;-75
2022/12/24 09:01:38;;;;;;;5.93;2.30;;;;;;;;;;5002289;28;20221;-75
2022/12/24 09:04:42;;;;;;;5.93;2.10;;;;;;;;;;5014180;28;20205;-75
2022/12/24 09:07:46;;;;;;;5.57;2.33;;;;;;;;;;5014506;28;20182;-75
2022/12/24 09:10:50;;;;;;;5.77;2.13;;;;;;;;;;5013174;28;20197;-75
2022/12/24 09:13:54;;;;;;;7.10;2.57;;;;;;;;;;5001779;28;20538;-75
2022/12/24 09:16:59;;;;;;;7.77;3.53;;;;;;;;;;5002333;28;20177;-75
2022/12/24 09:20:05;;;;;;;12.70;6.40;;;;;;;;;;5001751;28;20177;-75
2022/12/24 09:23:09;;;;;;;12.10;8.30;;;;;;;;;;4990666;28;20514;-75
2022/12/24 09:26:25;;;;;;;7.83;3.93;;;;;;;;;;5002146;28;20193;-75
2022/12/24 09:29:30;;;;;;;4.07;2.77;;;;;;;;;;5013577;28;20622;-75
2022/12/24 09:32:34;;;;;;;5.23;2.30;;;;;;;;;;5013662;28;20217;-75
2022/12/24 09:35:39;;;;;;;7.00;2.63;;;;;;;;;;5001687;28;20213;-75
2022/12/24 09:38:43;;;;;;;7.80;2.27;;;;;;;;;;5013898;28;20201;-74
2022/12/24 09:42:06;;;;;;;7.73;3.50;;;;;;;;;;5013602;28;20692;-74
2022/12/24 09:45:33;;;;;;;5.73;3.90;;;;;;;;;;5002343;28;20522;-74
2022/12/24 09:48:42;;;;;;;7.77;2.40;;;;;;;;;;5002180;28;20185;-74
2022/12/24 09:51:56;;;;;;;4.00;1.80;;;;;;;;;;5000498;28;20225;-74
2022/12/24 09:55:39;;;;;;;9.00;2.40;;;;;;;;;;5001535;28;20206;-74
2022/12/24 09:58:48;;;;;;;8.10;2.30;;;;;;;;;;4990523;28;20182;-76
2022/12/24 10:01:53;;;;;;;7.27;2.63;;;;;;;;;;5001666;28;20217;-76
2022/12/24 10:04:57;;;;;;;6.37;2.10;;;;;;;;;;5001036;28;20679;-75
2022/12/24 10:08:10;;;;;;;7.00;1.83;;;;;;;;;;5012432;28;20197;-76
2022/12/24 10:11:17;;;;;;;6.10;2.10;;;;;;;;;;5001054;28;20213;-75
2022/12/24 10:14:45;;;;;;;5.30;2.10;;;;;;;;;;5001203;28;20209;-74
2022/12/24 10:18:14;;;;;;;7.67;2.20;;;;;;;;;;5013562;28;20177;-75
2022/12/24 10:22:01;;;;;;;8.67;4.73;;;;;;;;;;5017894;28;20679;-75
2022/12/24 10:25:22;;;;;;;8.60;3.50;;;;;;;;;;5004983;28;20201;-74
2022/12/24 10:28:47;;;;;;;7.60;2.40;;;;;;;;;;5015345;28;20202;-75
2022/12/24 10:32:08;;;;;;;4.23;1.97;;;;;;;;;;5003096;28;20213;-75
2022/12/24 10:35:13;;;;;;;7.10;1.67;;;;;;;;;;5014741;28;20214;-75
2022/12/24 10:38:17;;;;;;;6.77;1.80;;;;;;;;;;5002584;28;20182;-74
2022/12/24 10:41:24;;;;;;;3.03;1.43;;;;;;;;;;5014091;28;20221;-75
2022/12/24 10:44:31;;;;;;;6.50;1.40;;;;;;;;;;5014145;28;20173;-74
2022/12/24 10:47:38;;;;;;;5.50;1.50;;;;;;;;;;5001485;28;20181;-75
2022/12/24 10:51:13;;;;;;;5.53;1.63;;;;;;;;;;5013527;28;20514;-75
2022/12/24 10:54:20;;;;;;;6.07;1.50;;;;;;;;;;5012751;28;20185;-75
2022/12/24 10:57:25;;;;;;;5.67;2.30;;;;;;;;;;5013472;28;20173;-75
2022/12/24 11:00:30;;;;;;;3.37;1.50;;;;;;;;;;5012955;28;20522;-74
2022/12/24 11:03:35;;;;;;;3.90;1.40;;;;;;;;;;4992454;28;20185;-75
2022/12/24 11:07:00;;;;;;;8.03;1.77;;;;;;;;;;4992849;28;20193;-75
2022/12/24 11:10:06;;;;;;;4.67;2.07;;;;;;;;;;5016300;28;20526;-74
2022/12/24 11:13:42;;;;;;;3.57;1.30;;;;;;;;;;5004114;28;20173;-74
2022/12/24 11:16:52;;;;;;;4.27;1.43;;;;;;;;;;5015661;28;20178;-73
2022/12/24 11:19:57;;;;;;;6.57;1.47;;;;;;;;;;5004241;28;20177;-74
2022/12/24 11:23:01;;;;;;;6.93;1.20;;;;;;;;;;5004469;28;20189;-74
2022/12/24 11:26:05;;;;;;;5.27;1.40;;;;;;;;;;5015274;28;20182;-74
2022/12/24 11:29:23;;;;;;;5.60;1.27;;;;;;;;;;4993477;28;20185;-74
2022/12/24 11:32:27;;;;;;;3.60;1.10;;;;;;;;;;5015953;28;20217;-74
2022/12/24 11:35:33;;;;;;;3.47;1.20;;;;;;;;;;5004144;28;20213;-75
2022/12/24 11:38:37;;;;;;;4.80;1.30;;;;;;;;;;5015997;28;20185;-75
2022/12/24 11:41:41;;;;;;;7.87;1.60;;;;;;;;;;5016249;28;20217;-75
2022/12/24 11:44:48;;;;;;;2.87;1.07;;;;;;;;;;5003937;28;20630;-75
2022/12/24 11:47:53;;;;;;;4.50;1.43;;;;;;;;;;5016372;28;20173;-75
2022/12/24 11:51:02;;;;;;;5.67;1.50;;;;;;;;;;5000653;28;20213;-75
2022/12/24 11:54:15;;;;;;;5.27;1.27;;;;;;;;;;5000015;28;20193;-75
2022/12/24 11:57:24;;;;;;;4.07;1.70;;;;;;;;;;5016391;28;20190;-75
2022/12/24 12:00:28;;;;;;;5.83;1.40;;;;;;;;;;4990614;28;20665;-75
2022/12/24 12:03:38;;;;;;;8.17;1.43;;;;;;;;;;5001823;28;20193;-76
2022/12/24 12:06:51;;;;;;;5.63;1.57;;;;;;;;;;5013549;28;20197;-75
2022/12/24 12:10:01;;;;;;;3.53;1.30;;;;;;;;;;5007552;28;20196;-75
2022/12/24 12:13:11;;;;;;;3.57;1.20;;;;;;;;;;5011954;28;20198;-75
2022/12/24 12:16:23;;;;;;;4.60;1.20;;;;;;;;;;5002733;28;20218;-75
2022/12/24 12:19:32;;;;;;;3.87;1.30;;;;;;;;;;5002101;28;20201;-75
2022/12/24 12:22:59;;;;;;;6.67;1.43;;;;;;;;;;5013683;28;20704;-75
2022/12/24 12:26:12;;;;;;;6.10;1.53;;;;;;;;;;5014614;28;20198;-75
2022/12/24 12:29:29;;;;;;;6.90;1.60;;;;;;;;;;5002571;28;20205;-75
2022/12/24 12:32:58;;;;;;;21.43;11.70;;;;;;;;;;4999762;28;20221;-76
2022/12/24 12:36:03;;;;;;;3.87;1.20;;;;;;;;;;4991462;28;20588;-77
2022/12/24 12:39:09;;;;;;;6.90;1.40;;;;;;;;;;5015370;28;20182;-77
2022/12/24 12:42:34;;;;;;;2.77;1.10;;;;;;;;;;5002267;28;20224;-77
2022/12/24 12:45:48;;;;;;;5.33;1.50;;;;;;;;;;5014028;28;20177;-77
2022/12/24 12:49:15;;;;;;;6.90;1.80;;;;;;;;;;5014222;28;20632;-77
2022/12/24 12:52:37;;;;;;;4.90;1.40;;;;;;;;;;5002121;28;20225;-76
2022/12/24 12:56:09;;;;;;;6.20;1.30;;;;;;;;;;5013510;28;20213;-80
2022/12/24 12:59:24;;;;;;;4.60;1.20;;;;;;;;;;4995781;28;20522;-77
2022/12/24 13:02:51;;;;;;;5.07;1.30;;;;;;;;;;5003500;28;20296;-78
2022/12/24 13:05:58;;;;;;;5.00;1.20;;;;;;;;;;5003776;28;20201;-78
2022/12/24 13:09:36;;;;;;;3.70;1.23;;;;;;;;;;5015519;28;20201;-76
2022/12/24 13:13:05;;;;;;;12.50;3.90;;;;;;;;;;5003685;28;20221;-77
2022/12/24 13:16:21;;;;;;;14.17;8.93;;;;;;;;;;5003663;28;20228;-78
2022/12/24 13:20:00;;;;;;;4.70;1.93;;;;;;;;;;5005731;28;20553;-78
2022/12/24 13:23:13;;;;;;;2.43;1.10;;;;;;;;;;5004300;28;20181;-77
2022/12/24 13:26:18;;;;;;;9.63;2.87;;;;;;;;;;5016152;28;20182;-78
2022/12/24 13:29:34;;;;;;;5.73;1.40;;;;;;;;;;5004847;28;20182;-77
2022/12/24 13:32:46;;;;;;;1.47;1.00;;;;;;;;;;5004836;28;20217;-78
2022/12/24 13:36:02;;;;;;;2.03;1.20;;;;;;;;;;5003286;28;20205;-77
2022/12/24 13:39:18;;;;;;;5.77;1.20;;;;;;;;;;5001589;28;20181;-77
2022/12/24 13:42:57;;;;;;;5.83;1.50;;;;;;;;;;5001227;28;20217;-77
2022/12/24 13:46:02;;;;;;;6.50;1.30;;;;;;;;;;5013756;28;20181;-77
2022/12/24 13:49:20;;;;;;;5.47;1.60;;;;;;;;;;5001341;28;20182;-77
2022/12/24 13:52:29;;;;;;;5.13;1.33;;;;;;;;;;5001528;28;20688;-77
2022/12/24 13:55:34;;;;;;;6.40;1.40;;;;;;;;;;4991952;28;20209;-77
2022/12/24 13:59:17;;;;;;;7.80;1.60;;;;;;;;;;4992492;28;20201;-77
2022/12/24 14:02:21;;;;;;;7.53;1.40;;;;;;;;;;4998912;28;20245;-77
2022/12/24 14:05:39;;;;;;;4.97;1.10;;;;;;;;;;5002712;28;20664;-78
2022/12/24 14:08:46;;;;;;;4.80;1.40;;;;;;;;;;4993523;28;20515;-78
2022/12/24 14:11:56;;;;;;;5.50;1.07;;;;;;;;;;4995514;28;20224;-78
2022/12/24 14:15:40;;;;;;;3.77;1.50;;;;;;;;;;4995052;28;20186;-77
2022/12/24 14:19:05;;;;;;;6.77;2.33;;;;;;;;;;4989703;28;20530;-77
2022/12/24 14:22:40;;;;;;;7.73;2.97;;;;;;;;;;4987251;28;20225;-77
2022/12/24 14:25:46;;;;;;;5.80;2.10;;;;;;;;;;4979379;28;20186;-77
2022/12/24 14:28:59;;;;;;;3.70;1.40;;;;;;;;;;5001574;28;20178;-77
2022/12/24 14:32:13;;;;;;;5.00;1.67;;;;;;;;;;4995560;28;20561;-77
2022/12/24 14:35:29;;;;;;;2.97;1.10;;;;;;;;;;5015601;28;20543;-77
2022/12/24 14:38:34;;;;;;;3.27;1.10;;;;;;;;;;4995952;28;20171;-77
2022/12/24 14:41:46;;;;;;;28.37;25.80;;;;;;;;;;4997905;28;20222;-78
2022/12/24 14:45:26;;;;;;;8.33;3.90;;;;;;;;;;5008620;28;20197;-77
2022/12/24 14:48:47;;;;;;;5.83;2.07;;;;;;;;;;5014362;28;20545;-78
2022/12/24 14:52:09;;;;;;;87.83;50.83;;;;;;;;;;4996398;28;20226;-77
2022/12/24 14:55:31;;;;;;;85.43;44.03;;;;;;;;;;4989591;28;20204;-77
2022/12/24 14:58:38;;;;;;;24.10;17.13;;;;;;;;;;5004865;28;20190;-77
2022/12/24 15:01:43;;;;;;;14.03;11.27;;;;;;;;;;5001226;28;20729;-76
2022/12/24 15:05:11;;;;;;;15.80;12.70;;;;;;;;;;4997393;28;20211;-76
2022/12/24 15:08:20;;;;;;;4.50;2.83;;;;;;;;;;4988022;28;20205;-76
2022/12/24 15:11:24;;;;;;;18.90;9.43;;;;;;;;;;5003743;28;20233;-77
2022/12/24 15:14:33;;;;;;;10.90;6.43;;;;;;;;;;5015315;28;20185;-77
2022/12/24 15:17:38;;;;;;;5.87;3.90;;;;;;;;;;5006076;28;20213;-77
2022/12/24 15:20:44;;;;;;;5.87;2.20;;;;;;;;;;4992074;28;20197;-78
2022/12/24 15:23:50;;;;;;;6.93;2.17;;;;;;;;;;4972582;28;20190;-78
2022/12/24 15:26:55;;;;;;;6.50;2.07;;;;;;;;;;4997046;28;20202;-77
2022/12/24 15:30:12;;;;;;;9.40;3.97;;;;;;;;;;5002281;28;20542;-78
2022/12/24 15:33:16;;;;;;;6.27;2.30;;;;;;;;;;4984261;28;20179;-76
2022/12/24 15:36:28;;;;;;;4.20;2.50;;;;;;;;;;5000403;28;20718;-77
2022/12/24 15:39:33;;;;;;;11.40;5.70;;;;;;;;;;4992453;28;20189;-77
2022/12/24 15:42:41;;;;;;;26.20;17.33;;;;;;;;;;5007738;28;20229;-76
2022/12/24 15:45:47;;;;;;;20.23;11.83;;;;;;;;;;5003396;28;20687;-77
2022/12/24 15:48:54;;;;;;;19.43;11.77;;;;;;;;;;4998784;28;20208;-77
2022/12/24 15:52:11;;;;;;;24.03;16.43;;;;;;;;;;4986078;28;20220;-77
2022/12/24 15:55:38;;;;;;;30.07;23.33;;;;;;;;;;5003111;28;20220;-77
2022/12/24 15:58:44;;;;;;;8.33;6.40;;;;;;;;;;5016489;28;20193;-77
2022/12/24 16:01:48;;;;;;;5.93;3.73;;;;;;;;;;5001597;28;20221;-76
2022/12/24 16:04:52;;;;;;;8.10;3.97;;;;;;;;;;5011574;28;20201;-77
2022/12/24 16:08:15;;;;;;;4.57;2.10;;;;;;;;;;5013807;28;20533;-76
2022/12/24 16:11:39;;;;;;;5.37;2.47;;;;;;;;;;5013041;28;20229;-76
2022/12/24 16:14:51;;;;;;;6.10;4.03;;;;;;;;;;4974475;28;20187;-77
2022/12/24 16:17:55;;;;;;;7.63;2.70;;;;;;;;;;5005092;28;20213;-77
2022/12/24 16:21:00;;;;;;;6.87;1.90;;;;;;;;;;4991932;28;20217;-76
2022/12/24 16:24:10;;;;;;;4.93;1.87;;;;;;;;;;5015137;28;20193;-77
2022/12/24 16:27:14;;;;;;;5.13;1.50;;;;;;;;;;5003033;28;20182;-77
2022/12/24 16:30:19;;;;;;;3.30;1.83;;;;;;;;;;4992196;28;20173;-76
2022/12/24 16:33:24;;;;;;;9.87;8.80;;;;;;;;;;5002599;28;20178;-76
2022/12/24 16:36:29;;;;;;;14.10;7.70;;;;;;;;;;5001098;28;20217;-76
2022/12/24 16:39:34;;;;;;;21.10;13.17;;;;;;;;;;5014378;28;20193;-76
2022/12/24 16:46:17;;;;;;;11.80;9.10;;;;;;;;;;4927335;28;20200;-77
2022/12/24 16:49:22;;;;;;;35.23;29.13;;;;;;;;;;5002811;28;20182;-77
2022/12/24 16:52:28;;;;;;;10.13;4.97;;;;;;;;;;5002118;28;20577;-77
2022/12/24 16:55:32;;;;;;;6.93;4.60;;;;;;;;;;4990976;28;20182;-76
2022/12/24 16:58:37;;;;;;;3.13;1.97;;;;;;;;;;5002052;28;20514;-77
2022/12/24 17:01:41;;;;;;;6.07;2.80;;;;;;;;;;5013835;28;20225;-77
2022/12/24 17:04:45;;;;;;;7.00;1.90;;;;;;;;;;5014154;28;20205;-77
2022/12/24 17:07:50;;;;;;;5.30;1.57;;;;;;;;;;5002205;28;20546;-77
2022/12/24 17:10:54;;;;;;;8.53;2.20;;;;;;;;;;5013852;28;20216;-77
2022/12/24 17:13:58;;;;;;;4.20;1.60;;;;;;;;;;5011852;28;20182;-77
2022/12/24 17:17:03;;;;;;;5.03;1.73;;;;;;;;;;5013772;28;20205;-77
2022/12/24 17:20:08;;;;;;;6.67;1.90;;;;;;;;;;5013262;28;20201;-77
2022/12/24 17:23:12;;;;;;;6.67;3.60;;;;;;;;;;5013882;28;20181;-77
2022/12/24 17:26:16;;;;;;;7.07;5.80;;;;;;;;;;5011689;28;20193;-77
2022/12/24 17:29:21;;;;;;;20.43;12.93;;;;;;;;;;4987963;28;20197;-77
2022/12/24 17:32:26;;;;;;;26.33;15.77;;;;;;;;;;4998914;28;20236;-77
2022/12/24 17:35:30;;;;;;;16.60;10.93;;;;;;;;;;5012840;28;20193;-77
2022/12/24 17:38:35;;;;;;;8.50;5.60;;;;;;;;;;5013823;28;20186;-77
2022/12/24 17:41:39;;;;;;;7.43;3.17;;;;;;;;;;5013543;28;20217;-78
2022/12/24 17:44:43;;;;;;;5.37;2.83;;;;;;;;;;5001938;28;20178;-78
2022/12/24 17:47:48;;;;;;;34.27;18.83;;;;;;;;;;5002185;28;20177;-78
2022/12/24 17:50:52;;;;;;;45.77;24.10;;;;;;;;;;5014226;28;20186;-78
2022/12/24 17:53:56;;;;;;;22.37;11.30;;;;;;;;;;5014090;28;20182;-78
2022/12/24 17:57:00;;;;;;;11.53;6.03;;;;;;;;;;5012681;28;20217;-78
2022/12/24 18:00:05;;;;;;;9.83;4.33;;;;;;;;;;5014193;28;20178;-78
2022/12/24 18:03:12;;;;;;;5.77;2.60;;;;;;;;;;4999974;28;20692;-78
2022/12/24 18:06:18;;;;;;;3.70;1.87;;;;;;;;;;5015060;28;20208;-78
2022/12/24 18:09:22;;;;;;;3.67;1.77;;;;;;;;;;4999238;28;20209;-78
2022/12/24 18:12:26;;;;;;;11.90;6.50;;;;;;;;;;5013896;28;20229;-78
2022/12/24 18:15:36;;;;;;;22.67;15.47;;;;;;;;;;5015575;28;20201;-78
2022/12/24 18:18:40;;;;;;;30.00;18.67;;;;;;;;;;5016540;28;20222;-78
2022/12/24 18:21:44;;;;;;;26.03;15.57;;;;;;;;;;5006211;28;20217;-78
2022/12/24 18:24:48;;;;;;;22.90;17.97;;;;;;;;;;5006265;28;20185;-78
2022/12/24 18:27:53;;;;;;;15.47;12.53;;;;;;;;;;5017322;28;20176;-78
2022/12/24 18:30:59;;;;;;;6.67;4.53;;;;;;;;;;5005899;28;20217;-78
2022/12/24 18:34:06;;;;;;;11.20;6.90;;;;;;;;;;5005952;28;20510;-78
2022/12/24 18:37:09;;;;;;;11.47;9.40;;;;;;;;;;5017526;28;20680;-78
2022/12/24 18:40:16;;;;;;;11.20;8.67;;;;;;;;;;5017731;28;20514;-78
2022/12/24 18:43:21;;;;;;;13.87;9.13;;;;;;;;;;5017725;28;20664;-78
2022/12/24 18:46:27;;;;;;;10.70;7.33;;;;;;;;;;5017038;28;20181;-78
2022/12/24 18:49:31;;;;;;;9.43;5.07;;;;;;;;;;5005564;28;20186;-78
2022/12/24 18:52:35;;;;;;;4.90;3.40;;;;;;;;;;5016079;28;20700;-78
2022/12/24 18:55:40;;;;;;;4.30;3.17;;;;;;;;;;5004931;28;20201;-77
2022/12/24 18:58:44;;;;;;;4.13;3.07;;;;;;;;;;5017370;28;20205;-77